Main page
METAR-TAF:

METAR-TAF

Airports :

Huesca–Pirineos Airport

Huesca, Spain

latitude: 42-04-32N, longitude: 0-18-58W, elevation: 539 m

Current weather observation

The report was made 19 minutes ago, at 23:00 UTC
Wind 4 kt from the West
Temperature 20°C
Humidity 68%
Pressure 1019 hPa
Visibility 10 km or more
no clouds below 1500 m and no cumulonimbus

METAR: LEHC 052300Z AUTO 28004KT CAVOK 20/14 Q1019

Time: 01:19 (23:19 UTC)

Forecast

The report was made 3 hours and 19 minutes ago, at 20:00 UTC
Forecast valid from 05 at 21 UTC to 06 at 21 UTC
Wind 5 kt from the West
Visibility 10 km or more
Few clouds at a height of 4000 ft
Becoming
from 06 at 10 UTC to 06 at 12 UTC
Wind 15 kt from the West/Northwest

TAF: LEHC 052000Z 0521/0621 28005KT 9999 FEW040 TX34/0614Z TN17/0605Z BECMG 0610/0612 30015KT

Weather observations and forecasts of more than 4000 airports (METAR and TAF reports).

The available stations are represented by yellow and red dots on the map.

Hover mouse over dot to see the name of the station.

Then click to see weather observations and forecasts.

To change the map : click on the green buttons with a black cross to zoom in, on the green button with a dash to zoom out, or on the green arrows for adjacent maps.


METAR-TAF: